sensor_id;sensor_type;location;lat;lon;timestamp;pressure;altitude;pressure_sealevel;temperature;humidity
20624;BME280;10471;42.736;23.346;2024-02-15T00:02:06;95981.88;;;3.50;100.00
20624;BME280;10471;42.736;23.346;2024-02-15T00:04:31;95978.53;;;3.43;100.00
20624;BME280;10471;42.736;23.346;2024-02-15T00:06:58;95980.53;;;3.41;100.00
20624;BME280;10471;42.736;23.346;2024-02-15T00:09:25;95976.56;;;3.38;100.00
20624;BME280;10471;42.736;23.346;2024-02-15T00:11:50;95976.34;;;3.40;100.00
20624;BME280;10471;42.736;23.346;2024-02-15T00:14:16;95980.53;;;3.41;100.00
20624;BME280;10471;42.736;23.346;2024-02-15T00:16:42;95989.38;;;3.40;100.00
20624;BME280;10471;42.736;23.346;2024-02-15T00:19:07;95996.63;;;3.38;100.00
20624;BME280;10471;42.736;23.346;2024-02-15T00:21:33;95988.22;;;3.36;100.00
20624;BME280;10471;42.736;23.346;2024-02-15T00:23:58;95990.66;;;3.31;100.00
20624;BME280;10471;42.736;23.346;2024-02-15T00:26:25;95996.25;;;3.34;100.00
20624;BME280;10471;42.736;23.346;2024-02-15T00:28:51;95995.47;;;3.34;100.00
20624;BME280;10471;42.736;23.346;2024-02-15T00:31:16;96000.28;;;3.30;100.00
20624;BME280;10471;42.736;23.346;2024-02-15T00:33:42;95995.47;;;3.34;100.00
20624;BME280;10471;42.736;23.346;2024-02-15T00:36:08;96000.66;;;3.34;100.00
20624;BME280;10471;42.736;23.346;2024-02-15T00:38:33;95999.00;;;3.39;100.00
20624;BME280;10471;42.736;23.346;2024-02-15T00:40:59;95997.78;;;3.42;100.00
20624;BME280;10471;42.736;23.346;2024-02-15T00:43:26;95997.19;;;3.40;100.00
20624;BME280;10471;42.736;23.346;2024-02-15T00:45:51;96000.38;;;3.42;100.00
20624;BME280;10471;42.736;23.346;2024-02-15T00:48:17;95993.78;;;3.39;100.00
20624;BME280;10471;42.736;23.346;2024-02-15T00:50:42;95996.16;;;3.41;100.00
20624;BME280;10471;42.736;23.346;2024-02-15T00:53:07;95988.94;;;3.43;100.00
20624;BME280;10471;42.736;23.346;2024-02-15T00:55:33;95984.91;;;3.47;100.00
20624;BME280;10471;42.736;23.346;2024-02-15T00:57:58;95991.84;;;3.53;100.00
20624;BME280;10471;42.736;23.346;2024-02-15T01:00:24;96000.53;;;3.47;100.00
20624;BME280;10471;42.736;23.346;2024-02-15T01:02:49;95999.38;;;3.43;100.00
20624;BME280;10471;42.736;23.346;2024-02-15T01:05:14;95988.50;;;3.46;100.00
20624;BME280;10471;42.736;23.346;2024-02-15T01:07:43;95991.72;;;3.48;100.00
20624;BME280;10471;42.736;23.346;2024-02-15T01:10:09;96003.28;;;3.52;100.00
20624;BME280;10471;42.736;23.346;2024-02-15T01:12:34;95992.72;;;3.47;100.00
20624;BME280;10471;42.736;23.346;2024-02-15T01:14:59;95995.75;;;3.44;100.00
20624;BME280;10471;42.736;23.346;2024-02-15T01:17:25;95998.16;;;3.45;100.00
20624;BME280;10471;42.736;23.346;2024-02-15T01:19:50;95990.69;;;3.49;100.00
20624;BME280;10471;42.736;23.346;2024-02-15T01:22:16;95994.53;;;3.46;100.00
20624;BME280;10471;42.736;23.346;2024-02-15T01:24:42;95995.31;;;3.47;100.00
20624;BME280;10471;42.736;23.346;2024-02-15T01:27:07;95990.09;;;3.47;100.00
20624;BME280;10471;42.736;23.346;2024-02-15T01:29:34;96000.16;;;3.43;100.00
20624;BME280;10471;42.736;23.346;2024-02-15T01:32:00;95991.34;;;3.44;100.00
20624;BME280;10471;42.736;23.346;2024-02-15T01:34:27;95992.56;;;3.42;100.00
20624;BME280;10471;42.736;23.346;2024-02-15T01:36:53;95993.00;;;3.39;100.00
20624;BME280;10471;42.736;23.346;2024-02-15T01:39:18;95983.00;;;3.36;100.00
20624;BME280;10471;42.736;23.346;2024-02-15T01:41:47;95991.41;;;3.38;100.00
20624;BME280;10471;42.736;23.346;2024-02-15T01:44:13;95985.38;;;3.37;100.00
20624;BME280;10471;42.736;23.346;2024-02-15T01:46:39;95990.19;;;3.40;100.00
20624;BME280;10471;42.736;23.346;2024-02-15T01:49:05;95991.81;;;3.35;100.00
20624;BME280;10471;42.736;23.346;2024-02-15T01:51:33;95993.41;;;3.36;100.00
20624;BME280;10471;42.736;23.346;2024-02-15T01:54:01;95994.22;;;3.36;100.00
20624;BME280;10471;42.736;23.346;2024-02-15T01:56:27;95990.66;;;3.31;100.00
20624;BME280;10471;42.736;23.346;2024-02-15T01:58:53;95997.91;;;3.29;100.00
20624;BME280;10471;42.736;23.346;2024-02-15T02:01:18;95989.66;;;3.32;100.00
20624;BME280;10471;42.736;23.346;2024-02-15T02:03:44;95993.03;;;3.32;100.00
20624;BME280;10471;42.736;23.346;2024-02-15T02:06:10;95993.63;;;3.34;100.00
20624;BME280;10471;42.736;23.346;2024-02-15T02:08:36;96000.06;;;3.32;100.00
20624;BME280;10471;42.736;23.346;2024-02-15T02:11:02;96001.06;;;3.31;100.00
20624;BME280;10471;42.736;23.346;2024-02-15T02:13:29;96007.88;;;3.32;100.00
20624;BME280;10471;42.736;23.346;2024-02-15T02:15:54;96009.34;;;3.28;100.00
20624;BME280;10471;42.736;23.346;2024-02-15T02:18:21;96002.09;;;3.30;100.00
20624;BME280;10471;42.736;23.346;2024-02-15T02:20:46;96002.91;;;3.30;100.00
20624;BME280;10471;42.736;23.346;2024-02-15T02:23:15;96006.72;;;3.28;100.00
20624;BME280;10471;42.736;23.346;2024-02-15T02:25:42;96011.56;;;3.24;100.00
20624;BME280;10471;42.736;23.346;2024-02-15T02:28:08;96011.94;;;3.28;100.00
20624;BME280;10471;42.736;23.346;2024-02-15T02:30:34;96007.59;;;3.22;100.00
20624;BME280;10471;42.736;23.346;2024-02-15T02:33:00;96009.59;;;3.20;100.00
20624;BME280;10471;42.736;23.346;2024-02-15T02:35:27;96010.56;;;3.25;100.00
20624;BME280;10471;42.736;23.346;2024-02-15T02:37:56;96013.19;;;3.19;100.00
20624;BME280;10471;42.736;23.346;2024-02-15T02:40:22;96017.00;;;3.23;100.00
20624;BME280;10471;42.736;23.346;2024-02-15T02:42:51;96012.84;;;3.16;100.00
20624;BME280;10471;42.736;23.346;2024-02-15T02:45:18;96007.44;;;3.17;100.00
20624;BME280;10471;42.736;23.346;2024-02-15T02:47:48;96015.66;;;3.14;100.00
20624;BME280;10471;42.736;23.346;2024-02-15T02:50:13;96012.88;;;3.09;100.00
20624;BME280;10471;42.736;23.346;2024-02-15T02:52:39;96014.06;;;3.13;100.00
20624;BME280;10471;42.736;23.346;2024-02-15T02:55:05;96020.06;;;3.14;100.00
20624;BME280;10471;42.736;23.346;2024-02-15T02:57:34;96022.50;;;3.09;100.00
20624;BME280;10471;42.736;23.346;2024-02-15T03:00:03;96022.13;;;3.05;100.00
20624;BME280;10471;42.736;23.346;2024-02-15T03:02:34;96016.53;;;3.08;100.00
20624;BME280;10471;42.736;23.346;2024-02-15T03:05:01;96014.91;;;3.07;100.00
20624;BME280;10471;42.736;23.346;2024-02-15T03:07:27;96008.56;;;3.03;100.00
20624;BME280;10471;42.736;23.346;2024-02-15T03:09:52;96009.56;;;3.02;100.00
20624;BME280;10471;42.736;23.346;2024-02-15T03:12:17;96014.59;;;2.97;100.00
20624;BME280;10471;42.736;23.346;2024-02-15T03:14:43;96027.03;;;2.95;100.00
20624;BME280;10471;42.736;23.346;2024-02-15T03:17:09;96021.81;;;2.95;100.00
20624;BME280;10471;42.736;23.346;2024-02-15T03:19:34;96023.25;;;2.91;100.00
20624;BME280;10471;42.736;23.346;2024-02-15T03:21:59;96020.22;;;2.94;100.00
20624;BME280;10471;42.736;23.346;2024-02-15T03:24:25;96027.47;;;2.92;100.00
20624;BME280;10471;42.736;23.346;2024-02-15T03:26:50;96031.78;;;2.98;100.00
20624;BME280;10471;42.736;23.346;2024-02-15T03:29:17;96032.66;;;2.92;100.00
20624;BME280;10471;42.736;23.346;2024-02-15T03:31:45;96030.63;;;2.94;100.00
20624;BME280;10471;42.736;23.346;2024-02-15T03:34:10;96041.03;;;2.94;100.00
20624;BME280;10471;42.736;23.346;2024-02-15T03:36:36;96035.09;;;2.87;100.00
20624;BME280;10471;42.736;23.346;2024-02-15T03:39:02;96032.69;;;2.86;100.00
20624;BME280;10471;42.736;23.346;2024-02-15T03:41:28;96022.88;;;2.88;100.00
20624;BME280;10471;42.736;23.346;2024-02-15T03:43:58;96029.31;;;2.85;100.00
20624;BME280;10471;42.736;23.346;2024-02-15T03:46:25;96029.91;;;2.87;100.00
20624;BME280;10471;42.736;23.346;2024-02-15T03:48:51;96026.69;;;2.85;100.00
20624;BME280;10471;42.736;23.346;2024-02-15T03:51:19;96027.47;;;2.86;100.00
20624;BME280;10471;42.736;23.346;2024-02-15T03:53:45;96034.28;;;2.87;100.00
20624;BME280;10471;42.736;23.346;2024-02-15T03:56:11;96025.94;;;2.78;100.00
20624;BME280;10471;42.736;23.346;2024-02-15T03:58:38;96029.56;;;2.77;100.00
20624;BME280;10471;42.736;23.346;2024-02-15T04:01:03;96027.97;;;2.76;100.00
20624;BME280;10471;42.736;23.346;2024-02-15T04:03:32;96027.81;;;2.71;100.00
20624;BME280;10471;42.736;23.346;2024-02-15T04:05:57;96031.41;;;2.70;100.00
20624;BME280;10471;42.736;23.346;2024-02-15T04:08:23;96031.56;;;2.75;100.00
20624;BME280;10471;42.736;23.346;2024-02-15T04:10:49;96036.00;;;2.68;100.00
20624;BME280;10471;42.736;23.346;2024-02-15T04:13:14;96034.84;;;2.64;100.00
20624;BME280;10471;42.736;23.346;2024-02-15T04:15:39;96040.03;;;2.64;100.00
20624;BME280;10471;42.736;23.346;2024-02-15T04:18:07;96043.69;;;2.57;100.00
20624;BME280;10471;42.736;23.346;2024-02-15T04:20:33;96041.31;;;2.56;100.00
20624;BME280;10471;42.736;23.346;2024-02-15T04:22:59;96043.09;;;2.55;100.00
20624;BME280;10471;42.736;23.346;2024-02-15T04:25:25;96034.06;;;2.58;100.00
20624;BME280;10471;42.736;23.346;2024-02-15T04:27:53;96037.09;;;2.55;100.00
20624;BME280;10471;42.736;23.346;2024-02-15T04:30:18;96038.06;;;2.60;100.00
20624;BME280;10471;42.736;23.346;2024-02-15T04:32:45;96039.88;;;2.59;100.00
20624;BME280;10471;42.736;23.346;2024-02-15T04:35:12;96052.88;;;2.59;100.00
20624;BME280;10471;42.736;23.346;2024-02-15T04:37:37;96041.31;;;2.56;100.00
20624;BME280;10471;42.736;23.346;2024-02-15T04:40:04;96042.91;;;2.57;100.00
20624;BME280;10471;42.736;23.346;2024-02-15T04:42:38;96048.50;;;2.54;100.00
20624;BME280;10471;42.736;23.346;2024-02-15T04:45:06;96058.50;;;2.57;100.00
20624;BME280;10471;42.736;23.346;2024-02-15T04:47:35;96048.94;;;2.51;100.00
20624;BME280;10471;42.736;23.346;2024-02-15T04:50:01;96058.69;;;2.55;100.00
20624;BME280;10471;42.736;23.346;2024-02-15T04:52:27;96062.31;;;2.54;100.00
20624;BME280;10471;42.736;23.346;2024-02-15T04:54:53;96063.50;;;2.58;100.00
20624;BME280;10471;42.736;23.346;2024-02-15T04:57:23;96063.72;;;2.57;100.00
20624;BME280;10471;42.736;23.346;2024-02-15T04:59:49;96060.47;;;2.61;100.00
20624;BME280;10471;42.736;23.346;2024-02-15T05:02:15;96068.06;;;2.62;100.00
20624;BME280;10471;42.736;23.346;2024-02-15T05:04:40;96070.81;;;2.67;100.00
20624;BME280;10471;42.736;23.346;2024-02-15T05:07:11;96070.66;;;2.62;100.00
20624;BME280;10471;42.736;23.346;2024-02-15T05:09:36;96071.47;;;2.63;100.00
20624;BME280;10471;42.736;23.346;2024-02-15T05:12:02;96080.06;;;2.63;100.00
20624;BME280;10471;42.736;23.346;2024-02-15T05:14:28;96078.88;;;2.59;100.00
20624;BME280;10471;42.736;23.346;2024-02-15T05:16:54;96080.06;;;2.63;100.00
20624;BME280;10471;42.736;23.346;2024-02-15T05:19:19;96091.47;;;2.62;100.00
20624;BME280;10471;42.736;23.346;2024-02-15T05:21:45;96087.72;;;2.52;100.00
20624;BME280;10471;42.736;23.346;2024-02-15T05:24:15;96085.53;;;2.56;100.00
20624;BME280;10471;42.736;23.346;2024-02-15T05:26:41;96082.09;;;2.55;100.00
20624;BME280;10471;42.736;23.346;2024-02-15T05:29:14;96096.53;;;2.51;100.00
20624;BME280;10471;42.736;23.346;2024-02-15T05:31:40;96089.34;;;2.47;100.00
20624;BME280;10471;42.736;23.346;2024-02-15T05:34:06;96086.16;;;2.45;100.00
20624;BME280;10471;42.736;23.346;2024-02-15T05:36:36;96091.75;;;2.48;100.00
20624;BME280;10471;42.736;23.346;2024-02-15T05:39:01;96092.34;;;2.50;100.00
20624;BME280;10471;42.736;23.346;2024-02-15T05:41:28;96100.94;;;2.51;100.00
20624;BME280;10471;42.736;23.346;2024-02-15T05:43:53;96110.31;;;2.52;100.00
20624;BME280;10471;42.736;23.346;2024-02-15T05:46:19;96113.34;;;2.49;100.00
20624;BME280;10471;42.736;23.346;2024-02-15T05:48:48;96102.53;;;2.52;100.00
20624;BME280;10471;42.736;23.346;2024-02-15T05:51:14;96103.94;;;2.48;100.00
20624;BME280;10471;42.736;23.346;2024-02-15T05:53:39;96113.59;;;2.41;100.00
20624;BME280;10471;42.736;23.346;2024-02-15T05:56:08;96112.22;;;2.38;100.00
20624;BME280;10471;42.736;23.346;2024-02-15T05:58:34;96118.19;;;2.39;100.00
20624;BME280;10471;42.736;23.346;2024-02-15T06:01:00;96126.41;;;2.36;100.00
20624;BME280;10471;42.736;23.346;2024-02-15T06:03:30;96119.38;;;2.43;100.00
20624;BME280;10471;42.736;23.346;2024-02-15T06:05:57;96129.38;;;2.46;100.00
20624;BME280;10471;42.736;23.346;2024-02-15T06:08:26;96128.56;;;2.45;100.00
20624;BME280;10471;42.736;23.346;2024-02-15T06:10:52;96127.78;;;2.45;100.00
20624;BME280;10471;42.736;23.346;2024-02-15T06:13:19;96133.38;;;2.42;100.00
20624;BME280;10471;42.736;23.346;2024-02-15T06:15:44;96134.94;;;2.49;100.00
20624;BME280;10471;42.736;23.346;2024-02-15T06:18:12;96142.13;;;2.54;100.00
20624;BME280;10471;42.736;23.346;2024-02-15T06:20:40;96133.72;;;2.52;100.00
20624;BME280;10471;42.736;23.346;2024-02-15T06:23:06;96142.53;;;2.57;100.00
20624;BME280;10471;42.736;23.346;2024-02-15T06:25:33;96145.53;;;2.54;100.00
20624;BME280;10471;42.736;23.346;2024-02-15T06:27:58;96140.53;;;2.59;100.00
20624;BME280;10471;42.736;23.346;2024-02-15T06:30:28;96145.47;;;2.67;100.00
20624;BME280;10471;42.736;23.346;2024-02-15T06:33:12;96150.28;;;2.63;100.00
20624;BME280;10471;42.736;23.346;2024-02-15T06:35:56;96158.47;;;2.67;100.00
20624;BME280;10471;42.736;23.346;2024-02-15T06:38:40;96167.47;;;2.71;100.00
20624;BME280;10471;42.736;23.346;2024-02-15T06:41:24;96162.25;;;2.71;100.00
20624;BME280;10471;42.736;23.346;2024-02-15T06:43:50;96166.88;;;2.62;100.00
20624;BME280;10471;42.736;23.346;2024-02-15T06:46:15;96169.13;;;2.53;100.00
20624;BME280;10471;42.736;23.346;2024-02-15T06:48:44;96170.13;;;2.52;100.00
20624;BME280;10471;42.736;23.346;2024-02-15T06:51:14;96172.94;;;2.57;100.00
20624;BME280;10471;42.736;23.346;2024-02-15T06:53:40;96167.31;;;2.59;100.00
20624;BME280;10471;42.736;23.346;2024-02-15T06:56:08;96167.72;;;2.63;100.00
20624;BME280;10471;42.736;23.346;2024-02-15T06:58:34;96163.66;;;2.73;100.00
20624;BME280;10471;42.736;23.346;2024-02-15T07:00:59;96161.25;;;2.72;100.00
20624;BME280;10471;42.736;23.346;2024-02-15T07:03:24;96160.03;;;2.74;100.00
20624;BME280;10471;42.736;23.346;2024-02-15T07:05:50;96162.44;;;2.76;100.00
20624;BME280;10471;42.736;23.346;2024-02-15T07:08:15;96154.50;;;2.64;100.00
20624;BME280;10471;42.736;23.346;2024-02-15T07:10:41;96158.25;;;2.68;100.00
20624;BME280;10471;42.736;23.346;2024-02-15T07:13:06;96157.28;;;2.69;100.00
20624;BME280;10471;42.736;23.346;2024-02-15T07:15:35;96146.38;;;2.85;100.00
20624;BME280;10471;42.736;23.346;2024-02-15T07:18:06;96155.19;;;2.84;100.00
20624;BME280;10471;42.736;23.346;2024-02-15T07:20:32;96169.19;;;2.83;100.00
20624;BME280;10471;42.736;23.346;2024-02-15T07:22:58;96155.47;;;3.07;100.00
20624;BME280;10471;42.736;23.346;2024-02-15T07:25:23;96157.81;;;3.15;100.00
20624;BME280;10471;42.736;23.346;2024-02-15T07:27:49;96147.34;;;3.28;100.00
20624;BME280;10471;42.736;23.346;2024-02-15T07:30:14;96148.28;;;3.33;100.00
20624;BME280;10471;42.736;23.346;2024-02-15T07:32:40;96147.66;;;3.38;100.00
20624;BME280;10471;42.736;23.346;2024-02-15T07:35:05;96144.06;;;3.39;100.00
20624;BME280;10471;42.736;23.346;2024-02-15T07:37:33;96143.19;;;3.45;100.00
20624;BME280;10471;42.736;23.346;2024-02-15T07:39:59;96141.00;;;3.42;100.00
20624;BME280;10471;42.736;23.346;2024-02-15T07:42:24;96147.28;;;3.59;100.00
20624;BME280;10471;42.736;23.346;2024-02-15T07:44:51;96139.31;;;3.54;100.00
20624;BME280;10471;42.736;23.346;2024-02-15T07:47:18;96137.78;;;3.71;100.00
20624;BME280;10471;42.736;23.346;2024-02-15T07:49:46;96138.19;;;3.92;100.00
20624;BME280;10471;42.736;23.346;2024-02-15T07:52:11;96144.03;;;3.88;100.00
20624;BME280;10471;42.736;23.346;2024-02-15T07:54:39;96147.53;;;3.99;100.00
20624;BME280;10471;42.736;23.346;2024-02-15T07:57:04;96147.03;;;4.09;100.00
20624;BME280;10471;42.736;23.346;2024-02-15T07:59:30;96155.50;;;4.04;100.00
20624;BME280;10471;42.736;23.346;2024-02-15T08:01:55;96146.44;;;4.07;100.00
20624;BME280;10471;42.736;23.346;2024-02-15T08:04:21;96156.53;;;4.21;100.00
20624;BME280;10471;42.736;23.346;2024-02-15T08:06:46;96146.66;;;4.23;100.00
20624;BME280;10471;42.736;23.346;2024-02-15T08:09:15;96134.28;;;4.37;100.00
20624;BME280;10471;42.736;23.346;2024-02-15T08:11:45;96136.53;;;4.51;100.00
20624;BME280;10471;42.736;23.346;2024-02-15T08:14:11;96134.84;;;4.56;100.00
20624;BME280;10471;42.736;23.346;2024-02-15T08:16:37;96139.88;;;4.58;100.00
20624;BME280;10471;42.736;23.346;2024-02-15T08:19:03;96131.19;;;4.64;100.00
20624;BME280;10471;42.736;23.346;2024-02-15T08:21:34;96133.63;;;4.59;100.00
20624;BME280;10471;42.736;23.346;2024-02-15T08:24:04;96135.31;;;4.53;100.00
20624;BME280;10471;42.736;23.346;2024-02-15T08:26:38;96128.28;;;4.83;100.00
20624;BME280;10471;42.736;23.346;2024-02-15T08:29:04;96130.53;;;4.98;100.00
20624;BME280;10471;42.736;23.346;2024-02-15T08:31:29;96128.88;;;5.15;100.00
20624;BME280;10471;42.736;23.346;2024-02-15T08:33:59;96121.59;;;5.17;100.00
20624;BME280;10471;42.736;23.346;2024-02-15T08:36:25;96128.97;;;5.08;100.00
20624;BME280;10471;42.736;23.346;2024-02-15T08:38:51;96132.19;;;5.21;100.00
20624;BME280;10471;42.736;23.346;2024-02-15T08:41:16;96130.28;;;5.28;100.00
20624;BME280;10471;42.736;23.346;2024-02-15T08:43:46;96126.28;;;5.26;100.00
20624;BME280;10471;42.736;23.346;2024-02-15T08:46:14;96126.25;;;5.44;100.00
20624;BME280;10471;42.736;23.346;2024-02-15T08:48:39;96114.84;;;5.50;100.00
20624;BME280;10471;42.736;23.346;2024-02-15T08:51:06;96127.72;;;5.63;100.00
20624;BME280;10471;42.736;23.346;2024-02-15T08:53:34;96123.75;;;5.60;100.00
20624;BME280;10471;42.736;23.346;2024-02-15T08:56:02;96122.00;;;5.31;100.00
20624;BME280;10471;42.736;23.346;2024-02-15T08:58:27;96123.75;;;5.49;100.00
20624;BME280;10471;42.736;23.346;2024-02-15T09:00:53;96124.22;;;5.57;100.00
20624;BME280;10471;42.736;23.346;2024-02-15T09:03:19;96125.53;;;5.48;100.00
20624;BME280;10471;42.736;23.346;2024-02-15T09:05:44;96122.63;;;5.68;100.00
20624;BME280;10471;42.736;23.346;2024-02-15T09:08:10;96128.59;;;5.86;100.00
20624;BME280;10471;42.736;23.346;2024-02-15T09:10:35;96113.00;;;5.91;100.00
20624;BME280;10471;42.736;23.346;2024-02-15T09:13:01;96109.00;;;6.00;100.00
20624;BME280;10471;42.736;23.346;2024-02-15T09:15:27;96116.66;;;6.01;100.00
20624;BME280;10471;42.736;23.346;2024-02-15T09:17:55;96108.66;;;6.19;100.00
20624;BME280;10471;42.736;23.346;2024-02-15T09:20:23;96102.97;;;6.34;100.00
20624;BME280;10471;42.736;23.346;2024-02-15T09:22:54;96109.09;;;6.28;100.00
20624;BME280;10471;42.736;23.346;2024-02-15T09:25:20;96107.81;;;6.42;100.00
20624;BME280;10471;42.736;23.346;2024-02-15T09:27:48;96105.25;;;6.19;100.00
20624;BME280;10471;42.736;23.346;2024-02-15T09:30:15;96104.19;;;6.43;100.00
20624;BME280;10471;42.736;23.346;2024-02-15T09:32:40;96108.53;;;6.26;100.00
20624;BME280;10471;42.736;23.346;2024-02-15T09:35:06;96095.09;;;6.34;100.00
20624;BME280;10471;42.736;23.346;2024-02-15T09:37:36;96105.56;;;6.34;100.00
20624;BME280;10471;42.736;23.346;2024-02-15T09:40:07;96102.66;;;6.19;100.00
20624;BME280;10471;42.736;23.346;2024-02-15T09:42:35;96098.53;;;6.23;100.00
20624;BME280;10471;42.736;23.346;2024-02-15T09:45:01;96093.03;;;6.36;100.00
20624;BME280;10471;42.736;23.346;2024-02-15T09:47:34;96093.72;;;6.43;100.00
20624;BME280;10471;42.736;23.346;2024-02-15T09:50:00;96091.69;;;6.45;100.00
20624;BME280;10471;42.736;23.346;2024-02-15T09:52:26;96088.44;;;6.65;100.00
20624;BME280;10471;42.736;23.346;2024-02-15T09:54:53;96084.09;;;6.87;100.00
20624;BME280;10471;42.736;23.346;2024-02-15T09:57:20;96083.41;;;6.92;100.00
20624;BME280;10471;42.736;23.346;2024-02-15T09:59:45;96089.00;;;6.95;100.00
20624;BME280;10471;42.736;23.346;2024-02-15T10:02:12;96072.97;;;7.08;100.00
20624;BME280;10471;42.736;23.346;2024-02-15T10:04:41;96073.19;;;6.90;100.00
20624;BME280;10471;42.736;23.346;2024-02-15T10:07:07;96067.78;;;6.97;100.00
20624;BME280;10471;42.736;23.346;2024-02-15T10:09:35;96070.25;;;7.03;100.00
20624;BME280;10471;42.736;23.346;2024-02-15T10:12:04;96069.34;;;7.25;100.00
20624;BME280;10471;42.736;23.346;2024-02-15T10:14:32;96063.72;;;7.33;100.00
20624;BME280;10471;42.736;23.346;2024-02-15T10:17:07;96057.13;;;7.31;100.00
20624;BME280;10471;42.736;23.346;2024-02-15T10:19:37;96051.41;;;7.50;99.90
20624;BME280;10471;42.736;23.346;2024-02-15T10:22:09;96055.84;;;7.50;97.58
20624;BME280;10471;42.736;23.346;2024-02-15T10:24:38;96045.44;;;7.55;97.16
20624;BME280;10471;42.736;23.346;2024-02-15T10:27:07;96041.53;;;7.74;93.95
20624;BME280;10471;42.736;23.346;2024-02-15T10:29:35;96041.53;;;7.74;93.32
20624;BME280;10471;42.736;23.346;2024-02-15T10:32:03;96035.94;;;7.86;94.59
20624;BME280;10471;42.736;23.346;2024-02-15T10:34:29;96034.38;;;7.85;90.70
20624;BME280;10471;42.736;23.346;2024-02-15T10:37:11;96041.81;;;7.93;89.96
20624;BME280;10471;42.736;23.346;2024-02-15T10:39:36;96028.31;;;8.06;90.24
20624;BME280;10471;42.736;23.346;2024-02-15T10:42:03;96029.22;;;8.12;88.02
20624;BME280;10471;42.736;23.346;2024-02-15T10:44:31;96018.50;;;8.35;90.26
20624;BME280;10471;42.736;23.346;2024-02-15T10:46:59;96016.84;;;8.50;85.86
20624;BME280;10471;42.736;23.346;2024-02-15T10:49:26;96027.41;;;8.55;84.89
20624;BME280;10471;42.736;23.346;2024-02-15T10:51:59;96014.00;;;8.56;85.36
20624;BME280;10471;42.736;23.346;2024-02-15T10:54:42;96017.69;;;8.34;86.77
20624;BME280;10471;42.736;23.346;2024-02-15T10:57:09;96017.84;;;8.06;87.10
20624;BME280;10471;42.736;23.346;2024-02-15T10:59:37;96007.28;;;8.18;87.59
20624;BME280;10471;42.736;23.346;2024-02-15T11:04:53;96004.84;;;8.59;86.25
20624;BME280;10471;42.736;23.346;2024-02-15T11:07:24;96004.47;;;8.72;86.30
20624;BME280;10471;42.736;23.346;2024-02-15T11:09:51;96004.41;;;8.93;86.88
20624;BME280;10471;42.736;23.346;2024-02-15T11:12:17;95999.88;;;9.15;85.68
20624;BME280;10471;42.736;23.346;2024-02-15T11:14:52;96005.47;;;9.23;83.65
20624;BME280;10471;42.736;23.346;2024-02-15T11:20:03;95993.16;;;8.98;81.61
20624;BME280;10471;42.736;23.346;2024-02-15T11:22:34;95998.22;;;8.78;82.09
20624;BME280;10471;42.736;23.346;2024-02-15T11:25:05;95997.38;;;8.99;83.86
20624;BME280;10471;42.736;23.346;2024-02-15T11:27:42;95986.94;;;9.09;82.61
20624;BME280;10471;42.736;23.346;2024-02-15T11:30:07;95991.28;;;9.24;85.44
20624;BME280;10471;42.736;23.346;2024-02-15T11:35:23;95989.19;;;9.26;82.42
20624;BME280;10471;42.736;23.346;2024-02-15T11:42:51;95989.28;;;9.05;82.24
20624;BME280;10471;42.736;23.346;2024-02-15T11:45:18;95986.47;;;9.16;84.28
20624;BME280;10471;42.736;23.346;2024-02-15T11:47:47;95978.78;;;9.41;83.62
20624;BME280;10471;42.736;23.346;2024-02-15T11:50:16;95976.44;;;9.45;81.68
20624;BME280;10471;42.736;23.346;2024-02-15T11:52:42;95980.91;;;9.44;80.96
20624;BME280;10471;42.736;23.346;2024-02-15T11:55:09;95980.00;;;9.65;83.06
20624;BME280;10471;42.736;23.346;2024-02-15T11:57:39;95973.25;;;9.84;80.77
20624;BME280;10471;42.736;23.346;2024-02-15T12:00:23;95969.31;;;9.81;78.89
20624;BME280;10471;42.736;23.346;2024-02-15T12:03:08;95966.03;;;10.01;76.54
20624;BME280;10471;42.736;23.346;2024-02-15T12:05:52;95964.34;;;10.46;79.65
20624;BME280;10471;42.736;23.346;2024-02-15T12:08:36;95959.91;;;10.71;75.17
20624;BME280;10471;42.736;23.346;2024-02-15T12:11:20;95956.78;;;10.69;75.50
20624;BME280;10471;42.736;23.346;2024-02-15T12:14:04;95948.63;;;11.01;76.80
20624;BME280;10471;42.736;23.346;2024-02-15T12:17:01;95950.88;;;10.33;74.46
20624;BME280;10471;42.736;23.346;2024-02-15T12:19:47;95956.06;;;10.13;76.30
20624;BME280;10471;42.736;23.346;2024-02-15T12:22:21;95952.78;;;10.47;75.79
20624;BME280;10471;42.736;23.346;2024-02-15T12:24:57;95957.19;;;10.27;72.50
20624;BME280;10471;42.736;23.346;2024-02-15T12:27:24;95942.00;;;10.78;74.22
20624;BME280;10471;42.736;23.346;2024-02-15T12:29:56;95942.56;;;11.05;70.96
20624;BME280;10471;42.736;23.346;2024-02-15T12:32:24;95936.25;;;11.21;69.37
20624;BME280;10471;42.736;23.346;2024-02-15T12:34:51;95950.47;;;11.30;69.75
20624;BME280;10471;42.736;23.346;2024-02-15T12:37:23;95950.75;;;11.18;70.68
20624;BME280;10471;42.736;23.346;2024-02-15T12:39:49;95938.34;;;11.14;70.03
20624;BME280;10471;42.736;23.346;2024-02-15T12:42:18;95943.06;;;10.87;70.35
20624;BME280;10471;42.736;23.346;2024-02-15T12:44:46;95947.81;;;10.75;70.38
20624;BME280;10471;42.736;23.346;2024-02-15T12:47:22;95936.16;;;10.56;72.40
20624;BME280;10471;42.736;23.346;2024-02-15T12:49:48;95936.41;;;10.40;72.79
20624;BME280;10471;42.736;23.346;2024-02-15T12:52:36;95934.50;;;10.26;75.18
20624;BME280;10471;42.736;23.346;2024-02-15T12:57:47;95941.75;;;10.70;74.22
20624;BME280;10471;42.736;23.346;2024-02-15T13:00:18;95930.88;;;10.42;72.61
20624;BME280;10471;42.736;23.346;2024-02-15T13:02:48;95931.69;;;10.47;72.25
20624;BME280;10471;42.736;23.346;2024-02-15T13:05:17;95932.22;;;10.54;73.57
20624;BME280;10471;42.736;23.346;2024-02-15T13:07:53;95929.84;;;10.57;72.48
20624;BME280;10471;42.736;23.346;2024-02-15T13:10:23;95924.03;;;10.50;72.53